createdAt,value
2018-11-11T00:00:41.797Z,0.00
2018-11-11T00:01:42.664Z,0.00
2018-11-11T00:02:41.755Z,0.00
2018-11-11T00:03:41.749Z,0.00
2018-11-11T00:04:41.790Z,0.00
2018-11-11T00:05:41.734Z,0.00
2018-11-11T00:06:41.709Z,0.00
2018-11-11T00:07:42.666Z,0.00
2018-11-11T00:08:41.689Z,0.00
2018-11-11T00:09:41.710Z,0.00
2018-11-11T00:10:41.686Z,0.00
2018-11-11T00:11:41.659Z,0.00
2018-11-11T00:12:41.649Z,0.00
2018-11-11T00:13:41.698Z,0.00
2018-11-11T00:14:41.634Z,0.00
2018-11-11T00:15:41.639Z,0.00
2018-11-11T00:16:41.604Z,0.00
2018-11-11T00:17:42.162Z,0.00
2018-11-11T00:18:41.580Z,0.00
2018-11-11T00:19:41.576Z,0.00
2018-11-11T00:20:41.678Z,0.00
2018-11-11T00:21:44.200Z,0.00
2018-11-11T00:22:41.543Z,0.00
2018-11-11T00:23:41.530Z,0.00
2018-11-11T00:24:41.533Z,0.00
2018-11-11T00:25:41.522Z,0.00
2018-11-11T00:26:41.495Z,0.00
2018-11-11T00:27:41.477Z,0.00
2018-11-11T00:28:41.513Z,0.00
2018-11-11T00:29:41.491Z,0.00
2018-11-11T00:30:41.700Z,0.00
2018-11-11T00:31:41.436Z,0.00
2018-11-11T00:32:41.459Z,0.00
2018-11-11T00:33:41.426Z,0.00
2018-11-11T00:34:41.413Z,0.00
2018-11-11T00:35:41.403Z,0.00
2018-11-11T00:36:43.167Z,0.00
2018-11-11T00:37:41.390Z,0.00
2018-11-11T00:38:41.372Z,0.00
2018-11-11T00:39:41.754Z,0.00
2018-11-11T00:40:41.339Z,0.00
2018-11-11T00:41:41.557Z,0.00
2018-11-11T00:42:41.332Z,0.00
2018-11-11T00:43:41.301Z,0.00
2018-11-11T00:44:41.305Z,0.00
2018-11-11T00:45:42.180Z,0.00
2018-11-11T00:46:41.268Z,0.00
2018-11-11T00:47:41.260Z,0.00
2018-11-11T00:48:41.253Z,0.00
2018-11-11T00:49:41.293Z,0.00
2018-11-11T00:50:41.225Z,0.00
2018-11-11T00:51:41.242Z,0.00
2018-11-11T00:52:41.211Z,0.00
2018-11-11T00:53:42.172Z,0.00
2018-11-11T00:54:41.198Z,0.00
2018-11-11T00:55:41.181Z,0.00
2018-11-11T00:56:41.346Z,0.00
2018-11-11T00:57:41.667Z,0.00
2018-11-11T00:58:41.141Z,0.00
2018-11-11T00:59:41.892Z,0.00
2018-11-11T01:00:41.795Z,0.00
2018-11-11T01:01:41.308Z,0.00
2018-11-11T01:02:41.131Z,0.00
2018-11-11T01:03:41.097Z,0.00
2018-11-11T01:04:41.174Z,0.00
2018-11-11T01:05:41.063Z,0.00
2018-11-11T01:06:41.161Z,0.00
2018-11-11T01:07:41.667Z,0.00
2018-11-11T01:08:41.245Z,0.00
2018-11-11T01:09:41.134Z,0.00
2018-11-11T01:10:41.009Z,0.00
2018-11-11T01:11:41.015Z,0.00
2018-11-11T01:12:41.296Z,0.00
2018-11-11T01:13:40.996Z,0.00
2018-11-11T01:14:41.140Z,0.00
2018-11-11T01:15:40.950Z,0.00
2018-11-11T01:16:40.940Z,0.00
2018-11-11T01:17:40.970Z,0.00
2018-11-11T01:18:40.920Z,0.00
2018-11-11T01:19:41.854Z,0.00
2018-11-11T01:20:40.907Z,0.00
2018-11-11T01:21:41.080Z,0.00
2018-11-11T01:22:41.175Z,0.00
2018-11-11T01:23:41.071Z,0.00
2018-11-11T01:24:41.059Z,0.00
2018-11-11T01:25:40.846Z,0.00
2018-11-11T01:26:41.007Z,0.00
2018-11-11T01:27:41.189Z,0.00
2018-11-11T01:28:40.848Z,0.00
2018-11-11T01:29:41.022Z,0.00
2018-11-11T01:30:41.857Z,0.00
2018-11-11T01:31:41.673Z,0.00
2018-11-11T01:32:40.810Z,0.00
2018-11-11T01:33:40.761Z,0.00
2018-11-11T01:34:40.752Z,0.00
2018-11-11T01:35:40.922Z,0.00
2018-11-11T01:36:40.717Z,0.00
2018-11-11T01:37:40.709Z,0.00
2018-11-11T01:38:40.710Z,0.00
2018-11-11T01:39:40.703Z,0.00
2018-11-11T01:40:40.676Z,0.00
2018-11-11T01:41:40.682Z,0.00
2018-11-11T01:42:40.650Z,0.00
2018-11-11T01:43:40.950Z,0.00
2018-11-11T01:44:40.851Z,0.00
2018-11-11T01:45:40.626Z,0.00
2018-11-11T01:46:41.175Z,0.00
2018-11-11T01:47:40.612Z,0.00
2018-11-11T01:48:40.606Z,0.00
2018-11-11T01:49:41.165Z,0.00
2018-11-11T01:50:40.562Z,0.00
2018-11-11T01:51:40.753Z,0.00
2018-11-11T01:52:40.603Z,0.00
2018-11-11T01:53:41.179Z,0.00
2018-11-11T01:54:40.526Z,0.00
2018-11-11T01:55:40.508Z,0.00
2018-11-11T01:56:40.505Z,0.00
2018-11-11T01:57:40.546Z,0.00
2018-11-11T01:58:40.702Z,0.00
2018-11-11T01:59:40.473Z,0.00
2018-11-11T02:00:40.456Z,0.00
2018-11-11T02:01:40.454Z,0.00
2018-11-11T02:02:40.446Z,0.00
2018-11-11T02:03:40.440Z,0.00
2018-11-11T02:04:40.408Z,0.00
2018-11-11T02:05:40.408Z,0.00
2018-11-11T02:06:40.398Z,0.00
2018-11-11T02:07:40.408Z,0.00
2018-11-11T02:08:40.390Z,0.00
2018-11-11T02:09:40.382Z,0.00
2018-11-11T02:10:40.344Z,0.00
2018-11-11T02:11:41.173Z,0.00
2018-11-11T02:12:40.515Z,0.00
2018-11-11T02:13:40.316Z,0.00
2018-11-11T02:14:40.334Z,0.00
2018-11-11T02:15:40.291Z,0.00
2018-11-11T02:16:40.277Z,0.00
2018-11-11T02:17:40.269Z,0.00
2018-11-11T02:18:40.278Z,0.00
2018-11-11T02:19:40.247Z,0.00
2018-11-11T02:20:40.248Z,0.00
2018-11-11T02:21:40.231Z,0.00
2018-11-11T02:22:40.228Z,0.00
2018-11-11T02:23:40.218Z,0.00
2018-11-11T02:24:40.224Z,0.00
2018-11-11T02:25:40.182Z,0.00
2018-11-11T02:26:40.189Z,0.00
2018-11-11T02:27:40.179Z,0.00
2018-11-11T02:28:40.673Z,0.00
2018-11-11T02:29:40.139Z,0.00
2018-11-11T02:30:40.138Z,0.00
2018-11-11T02:31:40.128Z,0.00
2018-11-11T02:32:40.161Z,0.00
2018-11-11T02:33:40.098Z,0.00
2018-11-11T02:34:40.097Z,0.00
2018-11-11T02:35:40.087Z,0.00
2018-11-11T02:36:40.067Z,0.00
2018-11-11T02:37:40.221Z,0.00
2018-11-11T02:38:40.041Z,0.00
2018-11-11T02:39:40.039Z,0.00
2018-11-11T02:40:40.027Z,0.00
2018-11-11T02:41:40.012Z,0.00
2018-11-11T02:42:39.999Z,0.00
2018-11-11T02:43:40.198Z,0.00
2018-11-11T02:44:39.976Z,0.00
2018-11-11T02:45:39.966Z,0.00
2018-11-11T02:46:40.013Z,0.00
2018-11-11T02:47:39.941Z,0.00
2018-11-11T02:48:39.949Z,0.00
2018-11-11T02:49:39.939Z,0.00
2018-11-11T02:50:39.931Z,0.00
2018-11-11T02:51:39.899Z,0.00
2018-11-11T02:52:39.886Z,0.00
2018-11-11T02:53:39.885Z,0.00
2018-11-11T02:54:39.871Z,0.00
2018-11-11T02:55:39.882Z,0.00
2018-11-11T02:56:39.843Z,0.00
2018-11-11T02:57:39.832Z,0.00
2018-11-11T02:58:39.826Z,0.00
2018-11-11T02:59:39.816Z,0.00
2018-11-11T03:00:39.823Z,0.00
2018-11-11T03:01:39.800Z,0.00
2018-11-11T03:02:39.779Z,0.00
2018-11-11T03:03:39.771Z,0.00
2018-11-11T03:04:39.759Z,0.00
2018-11-11T03:05:39.767Z,0.00
2018-11-11T03:06:39.736Z,0.00
2018-11-11T03:07:39.744Z,0.00
2018-11-11T03:08:39.739Z,0.00
2018-11-11T03:09:39.707Z,0.00
2018-11-11T03:10:39.723Z,0.00
2018-11-11T03:11:39.698Z,0.00
2018-11-11T03:12:39.673Z,0.00
2018-11-11T03:13:39.683Z,0.00
2018-11-11T03:14:39.669Z,0.00
2018-11-11T03:15:39.665Z,0.00
2018-11-11T03:16:39.637Z,0.00
2018-11-11T03:17:39.635Z,0.00
2018-11-11T03:18:39.605Z,0.00
2018-11-11T03:19:39.613Z,0.00
2018-11-11T03:20:39.649Z,0.00
2018-11-11T03:21:39.578Z,0.00
2018-11-11T03:22:39.581Z,0.00
2018-11-11T03:23:39.552Z,0.00
2018-11-11T03:24:39.542Z,0.00
2018-11-11T03:25:39.554Z,0.00
2018-11-11T03:26:39.525Z,0.00
2018-11-11T03:27:39.529Z,0.00
2018-11-11T03:28:39.501Z,0.00
2018-11-11T03:29:39.524Z,0.00
2018-11-11T03:30:39.698Z,0.00
2018-11-11T03:31:39.477Z,0.00
2018-11-11T03:32:39.454Z,0.00
2018-11-11T03:33:39.448Z,0.00
2018-11-11T03:34:39.441Z,0.00
2018-11-11T03:35:39.424Z,0.00
2018-11-11T03:36:39.424Z,0.00
2018-11-11T03:37:39.405Z,0.00
2018-11-11T03:38:39.390Z,0.00
2018-11-11T03:39:39.407Z,0.00
2018-11-11T03:40:39.380Z,0.00
2018-11-11T03:41:39.375Z,0.00
2018-11-11T03:42:39.353Z,0.00
2018-11-11T03:43:39.342Z,0.00
2018-11-11T03:44:39.324Z,0.00
2018-11-11T03:45:39.323Z,0.00
2018-11-11T03:46:39.318Z,0.00
2018-11-11T03:47:39.295Z,0.00
2018-11-11T03:48:39.284Z,0.00
2018-11-11T03:49:39.269Z,0.00
2018-11-11T03:50:39.261Z,0.00
2018-11-11T03:51:39.710Z,0.00
2018-11-11T03:52:39.243Z,0.00
2018-11-11T03:53:39.228Z,0.00
2018-11-11T03:54:39.220Z,0.00
2018-11-11T03:55:39.211Z,0.00
2018-11-11T03:56:39.215Z,0.00
2018-11-11T03:57:39.193Z,0.00
2018-11-11T03:58:39.208Z,0.00
2018-11-11T03:59:39.163Z,0.00
2018-11-11T04:00:39.154Z,0.00
2018-11-11T04:01:39.195Z,0.00
2018-11-11T04:02:39.137Z,0.00
2018-11-11T04:03:39.152Z,0.00
2018-11-11T04:04:39.109Z,0.00
2018-11-11T04:05:39.103Z,0.00
2018-11-11T04:06:39.105Z,0.00
2018-11-11T04:07:39.077Z,0.00
2018-11-11T04:08:39.070Z,0.00
2018-11-11T04:09:39.063Z,0.00
2018-11-11T04:10:39.042Z,0.00
2018-11-11T04:11:39.074Z,0.00
2018-11-11T04:12:39.023Z,0.00
2018-11-11T04:13:39.013Z,0.00
2018-11-11T04:14:39.002Z,0.00
2018-11-11T04:15:38.997Z,0.00
2018-11-11T04:16:38.993Z,0.00
2018-11-11T04:17:38.970Z,0.00
2018-11-11T04:18:38.971Z,0.00
2018-11-11T04:19:38.958Z,0.00
2018-11-11T04:20:38.937Z,0.00
2018-11-11T04:21:38.958Z,0.00
2018-11-11T04:22:38.925Z,0.00
2018-11-11T04:23:38.909Z,0.00
2018-11-11T04:24:38.894Z,0.00
2018-11-11T04:25:38.883Z,0.00
2018-11-11T04:26:38.899Z,0.00
2018-11-11T04:27:38.874Z,0.00
2018-11-11T04:28:38.855Z,0.00
2018-11-11T04:29:38.842Z,0.00
2018-11-11T04:30:38.832Z,0.00
2018-11-11T04:31:38.835Z,0.00
2018-11-11T04:32:38.853Z,0.00
2018-11-11T04:33:38.798Z,0.00
2018-11-11T04:34:38.795Z,0.00
2018-11-11T04:35:38.783Z,0.00
2018-11-11T04:36:38.805Z,0.00
2018-11-11T04:37:38.760Z,0.00
2018-11-11T04:38:38.756Z,0.00
2018-11-11T04:39:38.734Z,0.00
2018-11-11T04:40:38.723Z,0.00
2018-11-11T04:41:38.730Z,0.00
2018-11-11T04:42:38.710Z,0.00
2018-11-11T04:43:38.695Z,0.00
2018-11-11T04:44:38.687Z,0.00
2018-11-11T04:45:38.669Z,0.00
2018-11-11T04:46:38.673Z,0.00
2018-11-11T04:47:38.652Z,0.00
2018-11-11T04:48:38.643Z,0.00
2018-11-11T04:49:38.630Z,0.00
2018-11-11T04:50:38.628Z,0.00
2018-11-11T04:51:38.625Z,0.00
2018-11-11T04:52:38.595Z,0.00
2018-11-11T04:53:38.584Z,0.00
2018-11-11T04:54:38.576Z,0.00
2018-11-11T04:55:38.561Z,0.00
2018-11-11T04:56:38.572Z,0.00
2018-11-11T04:57:38.539Z,0.00
2018-11-11T04:58:38.537Z,0.00
2018-11-11T04:59:38.523Z,0.00
2018-11-11T05:00:38.546Z,0.00
2018-11-11T05:01:38.720Z,0.00
2018-11-11T05:02:38.496Z,0.00
2018-11-11T05:03:38.481Z,0.00
2018-11-11T05:04:38.493Z,0.00
2018-11-11T05:05:38.461Z,0.00
2018-11-11T05:06:38.467Z,0.00
2018-11-11T05:07:39.179Z,0.00
2018-11-11T05:08:38.427Z,0.00
2018-11-11T05:09:38.434Z,0.00
2018-11-11T05:10:38.403Z,0.00
2018-11-11T05:11:38.404Z,0.00
2018-11-11T05:12:38.383Z,0.00
2018-11-11T05:13:38.369Z,0.00
2018-11-11T05:14:38.367Z,0.00
2018-11-11T05:15:38.362Z,0.00
2018-11-11T05:16:39.185Z,0.00
2018-11-11T05:17:38.355Z,0.00
2018-11-11T05:18:38.332Z,0.00
2018-11-11T05:19:38.311Z,0.00
2018-11-11T05:20:38.299Z,0.00
2018-11-11T05:21:38.305Z,0.00
2018-11-11T05:22:38.297Z,0.00
2018-11-11T05:23:38.290Z,0.00
2018-11-11T05:24:38.251Z,0.00
2018-11-11T05:25:38.241Z,0.00
2018-11-11T05:26:38.235Z,0.00
2018-11-11T05:27:38.240Z,0.00
2018-11-11T05:28:38.218Z,0.00
2018-11-11T05:29:38.197Z,0.00
2018-11-11T05:30:38.189Z,0.00
2018-11-11T05:31:38.183Z,0.00
2018-11-11T05:32:38.178Z,0.00
2018-11-11T05:33:38.154Z,0.00
2018-11-11T05:34:38.157Z,0.00
2018-11-11T05:35:38.175Z,0.00
2018-11-11T05:36:38.123Z,0.00
2018-11-11T05:37:38.178Z,0.00
2018-11-11T05:38:39.679Z,0.00
2018-11-11T05:39:38.089Z,0.00
2018-11-11T05:40:38.078Z,0.00
2018-11-11T05:41:38.073Z,0.00
2018-11-11T05:42:38.113Z,0.00
2018-11-11T05:43:38.680Z,0.00
2018-11-11T05:44:38.675Z,0.00
2018-11-11T05:45:38.692Z,0.00
2018-11-11T05:46:38.676Z,0.00
2018-11-11T05:47:38.069Z,0.00
2018-11-11T05:48:37.997Z,0.00
2018-11-11T05:49:39.691Z,0.00
2018-11-11T05:50:37.977Z,0.00
2018-11-11T05:51:37.969Z,0.00
2018-11-11T05:52:37.978Z,0.00
2018-11-11T05:53:37.945Z,0.00
2018-11-11T05:54:37.943Z,0.00
2018-11-11T05:55:37.939Z,0.00
2018-11-11T05:56:38.119Z,0.00
2018-11-11T05:57:37.916Z,0.00
2018-11-11T05:58:37.899Z,0.00
2018-11-11T05:59:37.886Z,0.00
2018-11-11T06:00:37.871Z,0.00
2018-11-11T06:01:37.874Z,0.00
2018-11-11T06:02:37.875Z,0.00
2018-11-11T06:03:37.834Z,0.00
2018-11-11T06:04:37.821Z,0.00
2018-11-11T06:05:37.856Z,0.00
2018-11-11T06:06:37.818Z,0.00
2018-11-11T06:07:37.813Z,0.00
2018-11-11T06:08:37.798Z,0.00
2018-11-11T06:09:37.785Z,0.00
2018-11-11T06:10:37.772Z,0.00
2018-11-11T06:11:37.746Z,4.00
2018-11-11T06:12:38.677Z,4.00
2018-11-11T06:13:37.730Z,0.00
2018-11-11T06:14:37.765Z,0.00
2018-11-11T06:15:37.753Z,0.00
2018-11-11T06:16:37.699Z,4.00
2018-11-11T06:17:38.030Z,4.00
2018-11-11T06:18:37.674Z,4.00
2018-11-11T06:19:37.678Z,4.00
2018-11-11T06:20:37.654Z,0.00
2018-11-11T06:21:37.675Z,4.00
2018-11-11T06:22:37.706Z,4.00
2018-11-11T06:23:37.641Z,4.00
2018-11-11T06:24:37.744Z,8.00
2018-11-11T06:25:37.642Z,8.00
2018-11-11T06:26:37.587Z,12.00
2018-11-11T06:27:37.646Z,12.00
2018-11-11T06:28:37.571Z,12.00
2018-11-11T06:29:37.571Z,16.00
2018-11-11T06:30:37.551Z,32.00
2018-11-11T06:31:37.534Z,36.00
2018-11-11T06:32:37.550Z,40.00
2018-11-11T06:33:37.518Z,40.00
2018-11-11T06:34:37.502Z,40.00
2018-11-11T06:35:37.494Z,44.00
2018-11-11T06:36:37.495Z,48.00
2018-11-11T06:37:37.492Z,60.00
2018-11-11T06:38:37.514Z,64.00
2018-11-11T06:39:37.461Z,72.00
2018-11-11T06:40:37.443Z,80.00
2018-11-11T06:41:37.430Z,84.00
2018-11-11T06:42:37.445Z,84.00
2018-11-11T06:43:37.417Z,92.00
2018-11-11T06:44:37.397Z,100.00
2018-11-11T06:45:37.384Z,112.00
2018-11-11T06:46:37.390Z,124.00
2018-11-11T06:47:37.369Z,148.00
2018-11-11T06:48:38.200Z,164.00
2018-11-11T06:49:37.344Z,172.00
2018-11-11T06:50:37.332Z,184.00
2018-11-11T06:51:37.332Z,196.00
2018-11-11T06:52:37.311Z,204.00
2018-11-11T06:53:37.318Z,216.00
2018-11-11T06:54:38.189Z,236.00
2018-11-11T06:55:38.178Z,252.00
2018-11-11T06:56:39.177Z,244.00
2018-11-11T06:57:38.177Z,212.00
2018-11-11T06:58:37.260Z,192.00
2018-11-11T06:59:37.280Z,180.00
2018-11-11T07:00:37.453Z,244.00
2018-11-11T07:01:37.235Z,260.00
2018-11-11T07:02:39.178Z,260.00
2018-11-11T07:03:37.737Z,200.00
2018-11-11T07:04:37.215Z,180.00
2018-11-11T07:05:37.211Z,204.00
2018-11-11T07:06:37.156Z,320.00
2018-11-11T07:07:37.273Z,376.00
2018-11-11T07:08:37.204Z,416.00
2018-11-11T07:09:37.681Z,456.00
2018-11-11T07:10:37.121Z,492.00
2018-11-11T07:11:37.121Z,524.00
2018-11-11T07:12:37.114Z,576.00
2018-11-11T07:13:37.098Z,568.00
2018-11-11T07:14:37.075Z,532.00
2018-11-11T07:15:37.099Z,504.00
2018-11-11T07:16:37.051Z,492.00
2018-11-11T07:17:37.692Z,460.00
2018-11-11T07:18:37.072Z,440.00
2018-11-11T07:19:38.678Z,492.00
2018-11-11T07:20:37.007Z,368.00
2018-11-11T07:21:37.002Z,336.00
2018-11-11T07:22:36.992Z,372.00
2018-11-11T07:23:37.173Z,396.00
2018-11-11T07:24:36.968Z,388.00
2018-11-11T07:25:37.016Z,448.00
2018-11-11T07:26:36.946Z,504.00
2018-11-11T07:27:36.937Z,572.00
2018-11-11T07:28:36.992Z,616.00
2018-11-11T07:29:36.912Z,604.00
2018-11-11T07:30:37.698Z,504.00
2018-11-11T07:31:37.696Z,460.00
2018-11-11T07:32:36.881Z,408.00
2018-11-11T07:33:37.193Z,376.00
2018-11-11T07:34:36.894Z,420.00
2018-11-11T07:35:37.679Z,608.00
2018-11-11T07:36:36.833Z,800.00
2018-11-11T07:37:36.827Z,864.00
2018-11-11T07:38:37.247Z,932.00
2018-11-11T07:39:36.803Z,848.00
2018-11-11T07:40:36.817Z,648.00
2018-11-11T07:41:36.799Z,592.00
2018-11-11T07:42:36.827Z,732.00
2018-11-11T07:43:37.209Z,748.00
2018-11-11T07:44:36.745Z,708.00
2018-11-11T07:45:37.680Z,624.00
2018-11-11T07:46:36.746Z,708.00
2018-11-11T07:47:36.715Z,756.00
2018-11-11T07:48:36.716Z,860.00
2018-11-11T07:49:36.690Z,920.00
2018-11-11T07:50:36.683Z,660.00
2018-11-11T07:51:36.696Z,936.00
2018-11-11T07:52:39.181Z,1056.00
2018-11-11T07:53:36.682Z,1012.00
2018-11-11T07:54:36.637Z,896.00
2018-11-11T07:55:36.629Z,1032.00
2018-11-11T07:56:36.623Z,1116.00
2018-11-11T07:57:36.602Z,1052.00
2018-11-11T07:58:36.679Z,1100.00
2018-11-11T07:59:37.216Z,1180.00
2018-11-11T08:00:37.180Z,1392.00
2018-11-11T08:01:36.618Z,1812.00
2018-11-11T08:02:36.571Z,2132.00
2018-11-11T08:03:36.759Z,2008.00
2018-11-11T08:04:36.539Z,1636.00
2018-11-11T08:05:37.195Z,1556.00
2018-11-11T08:06:36.548Z,1740.00
2018-11-11T08:07:37.183Z,1792.00
2018-11-11T08:08:36.485Z,1660.00
2018-11-11T08:09:38.205Z,1412.00
2018-11-11T08:10:36.458Z,1408.00
2018-11-11T08:11:36.467Z,1584.00
2018-11-11T08:12:36.445Z,1864.00
2018-11-11T08:13:36.454Z,1792.00
2018-11-11T08:14:36.440Z,1488.00
2018-11-11T08:15:36.424Z,1296.00
2018-11-11T08:16:36.397Z,1304.00
2018-11-11T08:17:37.188Z,1564.00
2018-11-11T08:18:36.385Z,1428.00
2018-11-11T08:19:36.390Z,1316.00
2018-11-11T08:20:36.349Z,1428.00
2018-11-11T08:21:36.337Z,1652.00
2018-11-11T08:22:36.326Z,1632.00
2018-11-11T08:23:36.320Z,1420.00
2018-11-11T08:24:36.660Z,1436.00
2018-11-11T08:25:36.388Z,1868.00
2018-11-11T08:26:36.282Z,2444.00
2018-11-11T08:27:36.272Z,2652.00
2018-11-11T08:28:36.316Z,2792.00
2018-11-11T08:29:36.269Z,2460.00
2018-11-11T08:30:36.261Z,2288.00
2018-11-11T08:31:36.239Z,2256.00
2018-11-11T08:32:36.226Z,2152.00
2018-11-11T08:33:36.209Z,2488.00
2018-11-11T08:34:36.211Z,2660.00
2018-11-11T08:35:36.196Z,2464.00
2018-11-11T08:36:36.173Z,2000.00
2018-11-11T08:37:36.174Z,1816.00
2018-11-11T08:38:36.153Z,1772.00
2018-11-11T08:39:36.216Z,1824.00
2018-11-11T08:40:36.187Z,1836.00
2018-11-11T08:41:36.123Z,2052.00
2018-11-11T08:42:36.108Z,2268.00
2018-11-11T08:43:36.101Z,2348.00
2018-11-11T08:44:36.109Z,2200.00
2018-11-11T08:45:36.106Z,1952.00
2018-11-11T08:46:36.074Z,1672.00
2018-11-11T08:47:36.056Z,1632.00
2018-11-11T08:48:36.043Z,1860.00
2018-11-11T08:49:36.050Z,1992.00
2018-11-11T08:50:36.020Z,2252.00
2018-11-11T08:51:36.022Z,2680.00
2018-11-11T08:52:36.007Z,3032.00
2018-11-11T08:53:35.989Z,3064.00
2018-11-11T08:54:35.995Z,2984.00
2018-11-11T08:55:35.972Z,3248.00
2018-11-11T08:56:35.957Z,3644.00
2018-11-11T08:57:35.944Z,4228.00
2018-11-11T08:58:35.939Z,4716.00
2018-11-11T08:59:35.955Z,4600.00
2018-11-11T09:00:35.926Z,4384.00
2018-11-11T09:01:35.903Z,4300.00
2018-11-11T09:02:35.896Z,4052.00
2018-11-11T09:03:35.880Z,3452.00
2018-11-11T09:04:35.949Z,2888.00
2018-11-11T09:05:35.860Z,3188.00
2018-11-11T09:06:36.064Z,3196.00
2018-11-11T09:07:35.853Z,2916.00
2018-11-11T09:08:35.840Z,2252.00
2018-11-11T09:09:35.834Z,2236.00
2018-11-11T09:10:35.812Z,2252.00
2018-11-11T09:11:35.889Z,2508.00
2018-11-11T09:12:35.802Z,2600.00
2018-11-11T09:13:35.785Z,3032.00
2018-11-11T09:14:36.200Z,3540.00
2018-11-11T09:15:35.752Z,3700.00
2018-11-11T09:16:35.755Z,3540.00
2018-11-11T09:17:35.729Z,3500.00
2018-11-11T09:18:35.720Z,3524.00
2018-11-11T09:19:35.742Z,4064.00
2018-11-11T09:20:35.695Z,3536.00
2018-11-11T09:21:35.818Z,3024.00
2018-11-11T09:22:35.684Z,2528.00
2018-11-11T09:23:35.688Z,2400.00
2018-11-11T09:24:35.675Z,2328.00
2018-11-11T09:25:35.664Z,2224.00
2018-11-11T09:26:35.636Z,1808.00
2018-11-11T09:27:35.665Z,1968.00
2018-11-11T09:28:35.620Z,2048.00
2018-11-11T09:29:35.837Z,2916.00
2018-11-11T09:30:35.597Z,3980.00
2018-11-11T09:31:35.579Z,3324.00
2018-11-11T09:32:35.577Z,3376.00
2018-11-11T09:33:35.566Z,3768.00
2018-11-11T09:34:35.549Z,3604.00
2018-11-11T09:35:35.573Z,3156.00
2018-11-11T09:36:35.530Z,3376.00
2018-11-11T09:37:35.519Z,3660.00
2018-11-11T09:38:35.506Z,3792.00
2018-11-11T09:39:35.491Z,3556.00
2018-11-11T09:40:35.580Z,3380.00
2018-11-11T09:41:35.469Z,3056.00
2018-11-11T09:42:35.560Z,3008.00
2018-11-11T09:43:35.453Z,3496.00
2018-11-11T09:44:35.443Z,3708.00
2018-11-11T09:45:35.455Z,3276.00
2018-11-11T09:46:35.413Z,3908.00
2018-11-11T09:47:35.416Z,2992.00
2018-11-11T09:48:35.619Z,1944.00
2018-11-11T09:49:35.386Z,1836.00
2018-11-11T09:50:35.375Z,2452.00
2018-11-11T09:51:35.442Z,3168.00
2018-11-11T09:52:35.364Z,3636.00
2018-11-11T09:53:35.337Z,2912.00
2018-11-11T09:54:35.328Z,2792.00
2018-11-11T09:55:35.317Z,2256.00
2018-11-11T09:56:35.307Z,3248.00
2018-11-11T09:57:35.339Z,3744.00
2018-11-11T09:58:35.341Z,2896.00
2018-11-11T09:59:35.284Z,2984.00
2018-11-11T10:00:35.310Z,2668.00
2018-11-11T10:01:35.250Z,2520.00
2018-11-11T10:02:35.243Z,2924.00
2018-11-11T10:03:35.232Z,2728.00
2018-11-11T10:04:35.228Z,2772.00
2018-11-11T10:05:35.286Z,2488.00
2018-11-11T10:06:35.301Z,1744.00
2018-11-11T10:07:35.189Z,1528.00
2018-11-11T10:08:35.179Z,1400.00
2018-11-11T10:09:35.167Z,1376.00
2018-11-11T10:10:35.173Z,1424.00
2018-11-11T10:11:35.205Z,1632.00
2018-11-11T10:12:35.179Z,1964.00
2018-11-11T10:13:35.120Z,2464.00
2018-11-11T10:14:35.120Z,3340.00
2018-11-11T10:15:35.102Z,3936.00
2018-11-11T10:16:35.090Z,4200.00
2018-11-11T10:17:35.216Z,3424.00
2018-11-11T10:18:35.066Z,2156.00
2018-11-11T10:19:35.062Z,2128.00
2018-11-11T10:20:35.123Z,2332.00
2018-11-11T10:21:35.033Z,3256.00
2018-11-11T10:22:35.025Z,4188.00
2018-11-11T10:23:35.045Z,4200.00
2018-11-11T10:24:35.002Z,3428.00
2018-11-11T10:25:35.215Z,4228.00
2018-11-11T10:26:34.986Z,4560.00
2018-11-11T10:27:34.968Z,4368.00
2018-11-11T10:28:34.960Z,4180.00
2018-11-11T10:29:34.994Z,4548.00
2018-11-11T10:30:35.279Z,4352.00
2018-11-11T10:31:34.924Z,3692.00
2018-11-11T10:32:34.915Z,3536.00
2018-11-11T10:33:35.002Z,4288.00
2018-11-11T10:34:34.898Z,4840.00
2018-11-11T10:35:34.900Z,5064.00
2018-11-11T10:36:34.871Z,5296.00
2018-11-11T10:37:35.005Z,5124.00
2018-11-11T10:38:34.848Z,4580.00
2018-11-11T10:39:34.844Z,3852.00
2018-11-11T10:40:34.862Z,4736.00
2018-11-11T10:41:34.815Z,4348.00
2018-11-11T10:42:34.804Z,4700.00
2018-11-11T10:43:34.817Z,5256.00
2018-11-11T10:44:34.923Z,5316.00
2018-11-11T10:45:34.772Z,5376.00
2018-11-11T10:46:34.917Z,5968.00
2018-11-11T10:47:34.751Z,6312.00
2018-11-11T10:48:34.739Z,6032.00
2018-11-11T10:49:34.728Z,6640.00
2018-11-11T10:50:34.723Z,6672.00
2018-11-11T10:51:34.757Z,6848.00
2018-11-11T10:52:34.721Z,7016.00
2018-11-11T10:53:34.687Z,7060.00
2018-11-11T10:54:34.675Z,6064.00
2018-11-11T10:55:34.689Z,5524.00
2018-11-11T10:56:34.658Z,5432.00
2018-11-11T10:57:34.646Z,5264.00
2018-11-11T10:58:34.629Z,4776.00
2018-11-11T10:59:34.630Z,4352.00
2018-11-11T11:00:34.641Z,4824.00
2018-11-11T11:01:34.600Z,4440.00
2018-11-11T11:02:35.195Z,3760.00
2018-11-11T11:03:34.575Z,3224.00
2018-11-11T11:04:34.564Z,2836.00
2018-11-11T11:05:34.608Z,2880.00
2018-11-11T11:06:34.571Z,3492.00
2018-11-11T11:07:34.531Z,3688.00
2018-11-11T11:08:34.526Z,4012.00
2018-11-11T11:09:34.517Z,3692.00
2018-11-11T11:10:34.518Z,3888.00
2018-11-11T11:11:34.487Z,3336.00
2018-11-11T11:12:34.692Z,3192.00
2018-11-11T11:13:34.633Z,3368.00
2018-11-11T11:14:34.456Z,3180.00
2018-11-11T11:15:34.467Z,3168.00
2018-11-11T11:16:34.437Z,3684.00
2018-11-11T11:17:34.422Z,4132.00
2018-11-11T11:18:34.411Z,4456.00
2018-11-11T11:19:34.401Z,4612.00
2018-11-11T11:20:34.421Z,4988.00
2018-11-11T11:21:34.392Z,5216.00
2018-11-11T11:22:34.367Z,5648.00
2018-11-11T11:23:34.362Z,5156.00
2018-11-11T11:24:34.343Z,5000.00
2018-11-11T11:25:34.417Z,4964.00
2018-11-11T11:26:34.326Z,4920.00
2018-11-11T11:27:34.318Z,4976.00
2018-11-11T11:28:34.301Z,4604.00
2018-11-11T11:29:34.295Z,4648.00
2018-11-11T11:30:34.734Z,4804.00
2018-11-11T11:31:34.456Z,4372.00
2018-11-11T11:32:34.257Z,4868.00
2018-11-11T11:33:34.300Z,5556.00
2018-11-11T11:34:34.244Z,5652.00
2018-11-11T11:35:34.296Z,5500.00
2018-11-11T11:36:34.291Z,5624.00
2018-11-11T11:37:34.235Z,5260.00
2018-11-11T11:38:34.192Z,5612.00
2018-11-11T11:39:34.199Z,4832.00
2018-11-11T11:40:34.170Z,4224.00
2018-11-11T11:41:34.198Z,4024.00
2018-11-11T11:42:34.155Z,4056.00
2018-11-11T11:43:34.156Z,4160.00
2018-11-11T11:44:34.133Z,4272.00
2018-11-11T11:45:34.130Z,4340.00
2018-11-11T11:46:34.139Z,4232.00
2018-11-11T11:47:34.151Z,4088.00
2018-11-11T11:48:34.099Z,3944.00
2018-11-11T11:49:34.075Z,3992.00
2018-11-11T11:50:34.233Z,4056.00
2018-11-11T11:51:34.086Z,4280.00
2018-11-11T11:52:34.167Z,4592.00
2018-11-11T11:53:34.079Z,4664.00
2018-11-11T11:54:34.245Z,4928.00
2018-11-11T11:55:34.014Z,4976.00
2018-11-11T11:56:34.025Z,4728.00
2018-11-11T11:57:34.005Z,4392.00
2018-11-11T11:58:33.977Z,4248.00
2018-11-11T11:59:33.982Z,3740.00
2018-11-11T12:00:33.957Z,3248.00
2018-11-11T12:01:33.983Z,2836.00
2018-11-11T12:02:33.940Z,2964.00
2018-11-11T12:03:33.939Z,3000.00
2018-11-11T12:04:33.910Z,2956.00
2018-11-11T12:05:33.897Z,3148.00
2018-11-11T12:06:33.932Z,3408.00
2018-11-11T12:07:33.876Z,3628.00
2018-11-11T12:08:33.942Z,3804.00
2018-11-11T12:09:33.856Z,3572.00
2018-11-11T12:10:33.843Z,3480.00
2018-11-11T12:11:33.852Z,3464.00
2018-11-11T12:12:33.831Z,3456.00
2018-11-11T12:13:33.814Z,3552.00
2018-11-11T12:14:33.808Z,3544.00
2018-11-11T12:15:33.790Z,3336.00
2018-11-11T12:16:33.907Z,3384.00
2018-11-11T12:17:33.768Z,3360.00
2018-11-11T12:18:33.769Z,3468.00
2018-11-11T12:19:33.752Z,3684.00
2018-11-11T12:20:33.736Z,4032.00
2018-11-11T12:21:33.745Z,4632.00
2018-11-11T12:22:33.717Z,5736.00
2018-11-11T12:23:33.707Z,6968.00
2018-11-11T12:24:33.691Z,7744.00
2018-11-11T12:25:33.687Z,7236.00
2018-11-11T12:26:33.712Z,6800.00
2018-11-11T12:27:33.665Z,6496.00
2018-11-11T12:28:33.652Z,6088.00
2018-11-11T12:29:33.638Z,5564.00
2018-11-11T12:30:33.653Z,4972.00
2018-11-11T12:31:33.660Z,4360.00
2018-11-11T12:32:33.612Z,4240.00
2018-11-11T12:33:33.597Z,4236.00
2018-11-11T12:34:33.597Z,3652.00
2018-11-11T12:35:33.574Z,3420.00
2018-11-11T12:36:33.691Z,3112.00
2018-11-11T12:37:33.555Z,2708.00
2018-11-11T12:38:33.542Z,2700.00
2018-11-11T12:39:33.649Z,2868.00
2018-11-11T12:40:33.526Z,2988.00
2018-11-11T12:41:33.558Z,2984.00
2018-11-11T12:42:33.503Z,3064.00
2018-11-11T12:43:33.493Z,3028.00
2018-11-11T12:44:33.569Z,2596.00